Time;durP1;ratioP1;P1;durP2;ratioP2;P2;SDS_P1;SDS_P2;PMS_P1;PMS_P2;Temp;Humidity;BMP_temperature;BMP_pressure;BME280_temperature;BME280_humidity;BME280_pressure;Samples;Min_cycle;Max_cycle;Signal;HPM_P1;HPM_P2
2023/07/30 00:01:28;;;;;;;6.85;3.40;;;17.70;99.90;;;;;;5052660;28;20629;-75
2023/07/30 00:03:59;;;;;;;5.30;3.20;;;17.90;99.90;;;;;;5054191;28;20200;-78
2023/07/30 00:06:29;;;;;;;6.20;3.65;;;18.00;99.90;;;;;;5072468;28;20197;-78
2023/07/30 00:09:02;;;;;;;6.82;3.42;;;18.10;99.90;;;;;;5071791;28;20645;-75
2023/07/30 00:11:33;;;;;;;5.28;3.10;;;18.30;99.90;;;;;;5069159;28;20189;-76
2023/07/30 00:14:04;;;;;;;3.90;2.80;;;18.50;99.90;;;;;;5064148;28;20553;-76
2023/07/30 00:16:34;;;;;;;4.43;2.33;;;18.60;99.90;;;;;;5052934;28;20194;-73
2023/07/30 00:19:05;;;;;;;3.95;2.33;;;18.80;99.90;;;;;;5052799;28;20200;-77
2023/07/30 00:21:36;;;;;;;3.80;2.47;;;19.00;99.90;;;;;;5052784;28;20193;-79
2023/07/30 00:24:09;;;;;;;3.03;2.00;;;19.20;99.90;;;;;;5054288;28;20193;-78
2023/07/30 00:26:40;;;;;;;3.30;2.30;;;19.30;99.90;;;;;;5056293;28;20648;-78
2023/07/30 00:29:10;;;;;;;2.83;1.67;;;19.40;99.90;;;;;;5057434;28;20247;-78
2023/07/30 00:31:41;;;;;;;6.72;1.95;;;19.50;99.90;;;;;;5063710;28;20215;-77
2023/07/30 00:34:12;;;;;;;3.20;1.70;;;19.80;99.90;;;;;;5076017;28;20599;-77
2023/07/30 00:36:43;;;;;;;3.28;1.50;;;20.00;99.90;;;;;;5066861;28;20186;-79
2023/07/30 00:39:16;;;;;;;2.88;1.50;;;20.20;99.90;;;;;;5056267;28;20190;-77
2023/07/30 00:41:47;;;;;;;2.67;1.40;;;20.30;99.90;;;;;;5056240;28;20212;-78
2023/07/30 00:44:18;;;;;;;1.40;1.23;;;20.50;99.90;;;;;;5066815;28;20197;-80
2023/07/30 00:46:49;;;;;;;2.35;1.38;;;20.60;99.90;;;;;;5072712;28;20580;-78
2023/07/30 00:49:20;;;;;;;1.73;0.93;;;20.80;99.90;;;;;;5055982;28;20185;-78
2023/07/30 00:51:51;;;;;;;1.88;1.00;;;20.90;99.90;;;;;;5056324;28;20194;-76
2023/07/30 00:54:23;;;;;;;3.38;1.20;;;21.00;99.90;;;;;;5055837;28;20303;-79
2023/07/30 00:56:55;;;;;;;2.42;1.38;;;21.10;99.90;;;;;;5055746;28;20201;-81
2023/07/30 00:59:26;;;;;;;2.10;1.20;;;21.30;99.90;;;;;;5056047;28;20225;-78
2023/07/30 01:01:58;;;;;;;2.47;1.02;;;21.40;99.90;;;;;;5055604;28;20230;-79
2023/07/30 01:04:29;;;;;;;3.53;1.20;;;21.50;99.90;;;;;;5055735;28;20215;-79
2023/07/30 01:07:00;;;;;;;3.65;1.30;;;21.60;99.90;;;;;;5055448;28;20196;-78
2023/07/30 01:09:33;;;;;;;1.90;1.25;;;21.70;99.90;;;;;;5056079;28;20205;-80
2023/07/30 01:12:04;;;;;;;2.50;1.20;;;21.80;99.90;;;;;;5055697;28;20200;-76
2023/07/30 01:14:37;;;;;;;2.72;1.00;;;21.80;99.90;;;;;;5055531;28;20217;-79
2023/07/30 01:17:09;;;;;;;1.70;1.20;;;21.90;99.90;;;;;;5056047;28;20498;-78
2023/07/30 01:19:39;;;;;;;1.55;0.95;;;22.00;99.90;;;;;;5055421;28;20592;-81
2023/07/30 01:22:12;;;;;;;3.25;1.20;;;22.10;99.90;;;;;;5055425;28;20186;-74
2023/07/30 01:24:43;;;;;;;3.95;1.45;;;22.10;99.90;;;;;;5055502;28;20197;-77
2023/07/30 01:27:25;;;;;;;1.92;1.10;;;22.20;99.90;;;;;;5055367;28;20630;-77
2023/07/30 01:29:59;;;;;;;4.57;1.20;;;22.20;99.90;;;;;;5055169;28;20190;-78
2023/07/30 01:32:31;;;;;;;1.60;1.20;;;22.40;99.90;;;;;;5055171;28;20557;-78
2023/07/30 01:35:03;;;;;;;1.60;1.10;;;22.50;99.90;;;;;;5054601;28;20221;-80
2023/07/30 01:37:36;;;;;;;2.53;1.00;;;22.50;99.90;;;;;;5055081;28;20193;-78
2023/07/30 01:40:08;;;;;;;2.40;1.20;;;22.60;99.90;;;;;;5067819;28;20700;-81
2023/07/30 01:42:39;;;;;;;2.22;1.00;;;22.70;99.90;;;;;;5066349;28;20260;-73
2023/07/30 01:45:10;;;;;;;3.10;0.95;;;22.70;99.90;;;;;;5073488;28;20184;-81
2023/07/30 01:47:41;;;;;;;2.17;0.90;;;22.80;99.90;;;;;;5059194;28;20200;-78
2023/07/30 01:50:12;;;;;;;2.53;0.90;;;22.90;99.90;;;;;;5053600;28;20189;-76
2023/07/30 01:52:45;;;;;;;1.80;1.00;;;23.00;99.90;;;;;;5054174;28;20196;-84
2023/07/30 01:55:16;;;;;;;1.42;0.90;;;23.00;99.90;;;;;;5058738;28;20578;-82
2023/07/30 01:57:47;;;;;;;1.60;0.82;;;23.10;99.90;;;;;;5072572;28;20185;-85
2023/07/30 02:00:17;;;;;;;1.00;0.82;;;23.20;99.90;;;;;;5073325;28;20197;-86
2023/07/30 02:02:48;;;;;;;2.42;0.80;;;23.30;99.90;;;;;;5060838;28;20221;-79
2023/07/30 02:05:19;;;;;;;0.95;0.70;;;23.40;99.90;;;;;;5058886;28;20196;-85
2023/07/30 02:07:52;;;;;;;1.55;0.70;;;23.50;99.90;;;;;;5054464;28;20190;-87
2023/07/30 02:10:23;;;;;;;1.42;0.82;;;23.60;99.90;;;;;;5055561;28;20653;-85
2023/07/30 02:12:53;;;;;;;2.35;0.80;;;23.70;99.90;;;;;;5054666;28;20193;-85
2023/07/30 02:15:24;;;;;;;0.90;0.80;;;23.80;99.90;;;;;;5054601;28;20225;-87
2023/07/30 02:17:55;;;;;;;1.45;0.70;;;23.80;99.90;;;;;;5054610;28;20657;-83
2023/07/30 02:20:26;;;;;;;1.90;0.70;;;23.80;99.90;;;;;;5054522;28;20273;-89
2023/07/30 02:22:59;;;;;;;2.55;0.75;;;23.90;99.90;;;;;;5054568;28;20202;-82
2023/07/30 02:25:29;;;;;;;0.60;0.60;;;23.90;99.90;;;;;;5054428;28;20546;-83
2023/07/30 02:28:01;;;;;;;1.35;1.00;;;23.80;99.90;;;;;;5054700;28;20194;-84
2023/07/30 02:30:32;;;;;;;1.42;0.77;;;23.80;99.90;;;;;;5054227;28;20200;-81
2023/07/30 02:33:03;;;;;;;1.52;0.68;;;23.80;99.90;;;;;;5053963;28;20200;-82
2023/07/30 02:35:34;;;;;;;1.30;0.77;;;23.80;99.90;;;;;;5054226;28;20218;-85
2023/07/30 02:38:06;;;;;;;1.63;0.80;;;23.80;99.90;;;;;;5054106;28;20646;-79
2023/07/30 02:40:37;;;;;;;1.77;0.80;;;23.90;99.90;;;;;;5054364;28;20243;-87
2023/07/30 02:43:08;;;;;;;1.42;0.80;;;24.00;99.90;;;;;;5055397;28;20196;-91
2023/07/30 02:45:40;;;;;;;0.80;0.80;;;24.10;99.90;;;;;;5054485;28;20194;-88
2023/07/30 02:48:11;;;;;;;3.17;1.00;;;24.20;99.90;;;;;;5053538;28;20194;-86
2023/07/30 02:50:41;;;;;;;0.75;0.60;;;24.10;99.90;;;;;;5053880;28;20665;-84
2023/07/30 02:53:14;;;;;;;1.75;0.70;;;24.10;99.90;;;;;;5053889;28;20192;-82
2023/07/30 02:55:45;;;;;;;0.90;0.60;;;24.20;99.90;;;;;;5053956;28;20307;-83
2023/07/30 02:58:16;;;;;;;0.70;0.60;;;24.20;99.90;;;;;;5053579;28;20193;-80
2023/07/30 03:00:46;;;;;;;2.03;0.80;;;24.20;99.90;;;;;;5053624;28;20189;-81
2023/07/30 03:03:17;;;;;;;2.42;0.88;;;24.30;99.90;;;;;;5053222;28;20237;-82
2023/07/30 03:05:48;;;;;;;1.17;0.90;;;24.30;99.90;;;;;;5053574;28;20212;-85
2023/07/30 03:08:20;;;;;;;2.00;0.90;;;24.30;99.90;;;;;;5053483;28;20193;-78
2023/07/30 03:10:51;;;;;;;1.92;1.00;;;24.30;99.90;;;;;;5053447;28;20204;-89
2023/07/30 03:13:22;;;;;;;3.65;0.90;;;24.30;99.90;;;;;;5053854;28;20186;-86
2023/07/30 03:15:53;;;;;;;1.77;0.85;;;24.40;99.90;;;;;;5053621;28;20221;-86
2023/07/30 03:18:23;;;;;;;3.50;1.10;;;24.50;99.90;;;;;;5053271;28;20379;-84
2023/07/30 03:20:59;;;;;;;1.20;0.77;;;24.60;99.90;;;;;;5053795;28;20185;-83
2023/07/30 03:23:32;;;;;;;2.17;0.90;;;24.60;99.90;;;;;;5053447;28;20200;-82
2023/07/30 03:26:03;;;;;;;1.35;0.95;;;24.60;99.90;;;;;;5053448;28;20244;-85
2023/07/30 03:28:33;;;;;;;1.35;0.90;;;24.60;99.90;;;;;;5053468;28;20194;-85
2023/07/30 03:31:04;;;;;;;1.50;0.70;;;24.60;99.90;;;;;;5052918;28;20285;-86
2023/07/30 03:33:35;;;;;;;1.50;0.80;;;24.60;99.90;;;;;;5053548;28;20225;-86
2023/07/30 03:36:06;;;;;;;1.63;0.90;;;24.60;99.90;;;;;;5053549;28;20227;-75
2023/07/30 03:38:39;;;;;;;1.25;0.80;;;24.70;99.90;;;;;;5053666;28;20221;-87
2023/07/30 03:41:10;;;;;;;1.75;0.93;;;24.80;99.90;;;;;;5053564;28;20196;-91
2023/07/30 03:43:41;;;;;;;1.92;0.90;;;24.80;99.90;;;;;;5053417;28;20194;-89
2023/07/30 03:46:12;;;;;;;0.73;0.70;;;24.90;99.90;;;;;;5053177;28;20642;-85
2023/07/30 03:48:42;;;;;;;1.20;0.90;;;25.00;99.90;;;;;;5053901;28;20201;-90
2023/07/30 03:51:13;;;;;;;1.40;0.90;;;24.80;99.90;;;;;;5053869;28;20660;-91
2023/07/30 03:53:46;;;;;;;1.25;0.90;;;24.80;99.90;;;;;;5053436;28;20701;-82
2023/07/30 03:56:17;;;;;;;1.00;0.90;;;24.90;99.90;;;;;;5053177;28;20263;-87
2023/07/30 03:58:48;;;;;;;0.80;0.80;;;24.90;99.90;;;;;;5054830;28;20197;-85
2023/07/30 04:01:18;;;;;;;1.63;0.70;;;25.00;99.90;;;;;;5057103;28;20197;-83
2023/07/30 04:03:49;;;;;;;0.98;0.90;;;25.00;99.90;;;;;;5056966;28;20233;-81
2023/07/30 04:06:20;;;;;;;1.35;0.80;;;24.90;99.90;;;;;;5057028;28;20189;-87
2023/07/30 04:08:53;;;;;;;1.27;0.80;;;25.00;99.90;;;;;;5056862;28;20616;-84
2023/07/30 04:11:24;;;;;;;1.17;0.80;;;25.00;99.90;;;;;;5056669;28;20190;-88
2023/07/30 04:13:55;;;;;;;1.88;0.82;;;25.00;99.90;;;;;;5056854;28;20185;-82
2023/07/30 04:16:26;;;;;;;1.35;1.00;;;25.10;99.90;;;;;;5056858;28;20256;-83
2023/07/30 04:18:56;;;;;;;2.63;0.90;;;25.10;99.90;;;;;;5056820;28;20201;-85
2023/07/30 04:21:27;;;;;;;1.45;0.82;;;25.10;99.90;;;;;;5056774;28;20209;-84
2023/07/30 04:24:00;;;;;;;2.25;1.00;;;25.10;99.90;;;;;;5056804;28;20572;-85
2023/07/30 04:26:31;;;;;;;2.15;0.95;;;25.00;99.90;;;;;;5056616;28;20198;-84
2023/07/30 04:29:01;;;;;;;0.70;0.70;;;25.10;99.90;;;;;;5056453;28;20212;-82
2023/07/30 04:31:32;;;;;;;1.35;0.80;;;25.10;99.90;;;;;;5056441;28;20191;-81
2023/07/30 04:34:03;;;;;;;1.50;0.70;;;25.10;99.90;;;;;;5056407;28;20590;-76
2023/07/30 04:36:34;;;;;;;1.20;0.90;;;24.90;99.90;;;;;;5056287;28;20719;-82
2023/07/30 04:39:07;;;;;;;0.85;0.75;;;24.80;99.90;;;;;;5056468;28;20550;-74
2023/07/30 04:41:37;;;;;;;1.10;0.85;;;24.90;99.90;;;;;;5056228;28;20193;-82
2023/07/30 04:44:08;;;;;;;2.50;0.90;;;25.00;99.90;;;;;;5056189;28;20189;-86
2023/07/30 04:46:39;;;;;;;1.17;0.88;;;25.00;99.90;;;;;;5056479;28;20198;-88
2023/07/30 04:49:10;;;;;;;1.25;0.98;;;25.10;99.90;;;;;;5056178;28;20193;-75
2023/07/30 04:51:41;;;;;;;1.67;0.80;;;25.00;99.90;;;;;;5056078;28;20189;-78
2023/07/30 04:54:13;;;;;;;0.70;0.70;;;25.10;99.90;;;;;;5056174;28;20553;-76
2023/07/30 04:56:44;;;;;;;1.58;0.98;;;25.00;99.90;;;;;;5055991;28;20213;-86
2023/07/30 04:59:15;;;;;;;0.90;0.82;;;25.10;99.90;;;;;;5055882;28;20637;-87
2023/07/30 05:01:46;;;;;;;2.03;0.80;;;25.10;99.90;;;;;;5055621;28;20273;-71
2023/07/30 05:04:17;;;;;;;1.83;0.80;;;25.20;99.90;;;;;;5056116;28;20197;-83
2023/07/30 05:06:47;;;;;;;2.88;0.88;;;25.10;99.90;;;;;;5056036;28;20194;-84
2023/07/30 05:09:20;;;;;;;1.58;0.90;;;25.10;99.90;;;;;;5055277;28;20190;-82
2023/07/30 05:11:51;;;;;;;1.05;0.90;;;25.10;99.90;;;;;;5055490;28;20196;-84
2023/07/30 05:14:22;;;;;;;2.55;0.93;;;25.10;99.90;;;;;;5055871;28;20193;-83
2023/07/30 05:16:53;;;;;;;0.82;0.80;;;25.00;99.90;;;;;;5055598;28;20218;-84
2023/07/30 05:19:23;;;;;;;2.33;0.75;;;25.00;99.90;;;;;;5055634;28;20190;-87
2023/07/30 05:21:55;;;;;;;1.45;0.90;;;24.90;99.90;;;;;;5055616;28;20238;-79
2023/07/30 05:24:28;;;;;;;1.15;0.90;;;24.90;99.90;;;;;;5055798;28;20240;-82
2023/07/30 05:26:58;;;;;;;2.22;1.00;;;24.90;99.90;;;;;;5055313;28;20190;-85
2023/07/30 05:29:30;;;;;;;2.05;0.93;;;25.00;99.90;;;;;;5055920;28;20200;-82
2023/07/30 05:32:00;;;;;;;1.98;1.00;;;25.20;99.90;;;;;;5055444;28;20606;-84
2023/07/30 05:34:31;;;;;;;1.20;0.95;;;25.20;99.90;;;;;;5055294;28;20312;-87
2023/07/30 05:37:02;;;;;;;1.45;0.90;;;25.20;99.90;;;;;;5055166;28;20235;-79
2023/07/30 05:39:35;;;;;;;0.85;0.82;;;25.20;99.90;;;;;;5055744;28;20272;-81
2023/07/30 05:42:06;;;;;;;1.52;1.00;;;25.20;99.90;;;;;;5054798;28;20566;-83
2023/07/30 05:44:37;;;;;;;1.10;0.80;;;25.20;99.90;;;;;;5055021;28;20190;-83
2023/07/30 05:47:08;;;;;;;1.10;0.90;;;25.20;99.90;;;;;;5056036;28;20204;-83
2023/07/30 05:49:39;;;;;;;1.52;0.98;;;25.20;99.90;;;;;;5055146;28;20194;-81
2023/07/30 05:52:10;;;;;;;1.60;0.93;;;25.20;99.90;;;;;;5055091;28;20193;-82
2023/07/30 05:54:43;;;;;;;1.23;0.80;;;25.20;99.90;;;;;;5054864;28;20645;-80
2023/07/30 05:57:13;;;;;;;1.73;0.90;;;25.20;99.90;;;;;;5054934;28;20225;-82
2023/07/30 05:59:44;;;;;;;2.60;1.10;;;25.20;99.90;;;;;;5055032;28;20660;-80
2023/07/30 06:02:15;;;;;;;2.45;1.00;;;25.10;99.90;;;;;;5054928;28;20240;-79
2023/07/30 06:04:46;;;;;;;2.83;0.90;;;25.10;99.90;;;;;;5055616;28;20612;-81
2023/07/30 06:07:16;;;;;;;0.98;0.90;;;25.00;99.90;;;;;;5054931;28;20240;-83
2023/07/30 06:09:49;;;;;;;1.80;0.90;;;25.00;99.90;;;;;;5055093;28;20629;-83
2023/07/30 06:12:20;;;;;;;1.27;0.80;;;25.00;99.90;;;;;;5054598;28;20193;-82
2023/07/30 06:14:51;;;;;;;1.80;0.90;;;24.90;99.90;;;;;;5054744;28;20268;-83
2023/07/30 06:17:21;;;;;;;1.17;0.90;;;24.90;99.90;;;;;;5054458;28;20213;-79
2023/07/30 06:19:52;;;;;;;1.92;0.88;;;24.80;99.90;;;;;;5054384;28;20193;-82
2023/07/30 06:22:23;;;;;;;2.30;0.90;;;24.80;99.90;;;;;;5054190;28;20193;-83
2023/07/30 06:24:55;;;;;;;1.00;0.80;;;24.80;99.90;;;;;;5053973;28;20278;-74
2023/07/30 06:27:26;;;;;;;2.05;0.82;;;24.70;99.90;;;;;;5054257;28;20277;-78
2023/07/30 06:29:57;;;;;;;2.03;1.00;;;24.60;99.90;;;;;;5054146;28;20189;-82
2023/07/30 06:32:28;;;;;;;1.00;0.90;;;24.60;99.90;;;;;;5054022;28;20196;-77
2023/07/30 06:34:59;;;;;;;2.20;1.10;;;24.50;99.90;;;;;;5054000;28;20227;-78
2023/07/30 06:37:30;;;;;;;1.05;0.80;;;24.50;99.90;;;;;;5054067;28;20221;-83
2023/07/30 06:40:04;;;;;;;1.00;0.90;;;24.40;99.90;;;;;;5053782;28;20189;-81
2023/07/30 06:42:35;;;;;;;1.23;0.90;;;24.40;99.90;;;;;;5053853;28;20197;-83
2023/07/30 06:45:06;;;;;;;1.30;0.90;;;24.30;99.90;;;;;;5053961;28;20189;-73
2023/07/30 06:47:36;;;;;;;0.75;0.70;;;24.30;99.90;;;;;;5053668;28;20634;-83
2023/07/30 06:50:10;;;;;;;3.28;0.90;;;24.20;99.90;;;;;;5053863;28;20193;-80
2023/07/30 06:52:41;;;;;;;1.70;0.93;;;24.10;99.90;;;;;;5053586;28;20220;-83
2023/07/30 06:55:14;;;;;;;2.38;1.05;;;24.10;99.90;;;;;;5053308;28;20197;-84
2023/07/30 06:57:47;;;;;;;1.33;1.00;;;24.00;99.90;;;;;;5053476;28;20221;-85
2023/07/30 07:00:21;;;;;;;1.63;0.90;;;23.80;99.90;;;;;;5053976;28;20197;-83
2023/07/30 07:02:52;;;;;;;1.83;1.13;;;23.70;99.90;;;;;;5064671;28;20718;-86
2023/07/30 07:05:23;;;;;;;1.40;1.10;;;23.50;99.90;;;;;;5053634;28;20557;-84
2023/07/30 07:07:54;;;;;;;1.70;0.90;;;23.40;99.90;;;;;;5066856;28;20287;-84
2023/07/30 07:10:27;;;;;;;1.60;1.20;;;23.30;99.90;;;;;;5073754;28;20189;-84
2023/07/30 07:12:57;;;;;;;1.40;1.25;;;23.10;99.90;;;;;;5073652;28;20196;-84
2023/07/30 07:15:28;;;;;;;1.83;1.42;;;23.00;99.90;;;;;;5073385;28;20189;-84
2023/07/30 07:17:59;;;;;;;3.22;1.33;;;22.90;99.90;;;;;;5074323;28;20700;-83
2023/07/30 07:20:30;;;;;;;2.38;1.17;;;22.70;99.90;;;;;;5079445;28;20192;-83
2023/07/30 07:23:01;;;;;;;2.03;1.30;;;22.60;99.90;;;;;;5093168;28;20196;-78
2023/07/30 07:25:33;;;;;;;2.08;1.27;;;22.60;99.90;;;;;;5093352;28;20184;-83
2023/07/30 07:28:04;;;;;;;2.05;1.10;;;22.60;99.90;;;;;;5093294;28;20191;-83
2023/07/30 07:30:37;;;;;;;2.45;1.38;;;22.50;99.90;;;;;;5071635;28;20197;-82
2023/07/30 07:33:11;;;;;;;2.50;1.10;;;22.50;99.90;;;;;;5052487;28;20221;-84
2023/07/30 07:35:42;;;;;;;1.92;1.20;;;22.40;99.90;;;;;;5061077;28;20184;-84
2023/07/30 07:38:13;;;;;;;1.55;1.20;;;22.30;99.90;;;;;;5072326;28;20566;-81
2023/07/30 07:40:46;;;;;;;2.08;1.25;;;22.20;99.90;;;;;;5072402;28;20644;-83
2023/07/30 07:43:17;;;;;;;2.05;1.40;;;22.10;99.90;;;;;;5070809;28;20193;-83
2023/07/30 07:45:47;;;;;;;1.70;1.48;;;22.00;99.90;;;;;;5052557;28;20193;-83
2023/07/30 07:48:18;;;;;;;2.67;1.58;;;21.90;99.90;;;;;;5053910;28;20212;-82
2023/07/30 07:50:49;;;;;;;4.38;1.70;;;21.80;99.90;;;;;;5053266;28;20259;-83
2023/07/30 07:53:20;;;;;;;2.63;1.50;;;21.70;99.90;;;;;;5058416;28;20637;-84
2023/07/30 07:55:53;;;;;;;2.78;1.40;;;21.60;99.90;;;;;;5058731;28;20190;-83
2023/07/30 07:58:23;;;;;;;2.13;1.40;;;21.50;99.90;;;;;;5055167;28;20629;-83
2023/07/30 08:00:57;;;;;;;2.85;1.42;;;21.40;99.90;;;;;;5072564;28;20195;-84
2023/07/30 08:03:28;;;;;;;2.72;1.60;;;21.30;99.90;;;;;;5077502;28;20344;-83
2023/07/30 08:05:59;;;;;;;2.47;1.58;;;21.20;99.90;;;;;;5092999;28;20537;-84
2023/07/30 08:08:30;;;;;;;2.50;1.60;;;21.10;99.90;;;;;;5065020;28;20284;-82
2023/07/30 08:11:07;;;;;;;4.25;1.70;;;21.00;99.90;;;;;;5057394;28;20207;-79
2023/07/30 08:13:50;;;;;;;3.53;1.73;;;21.00;99.90;;;;;;5063867;28;20653;-82
2023/07/30 08:16:22;;;;;;;3.15;2.00;;;20.90;99.90;;;;;;5065330;28;20252;-83
2023/07/30 08:18:52;;;;;;;2.17;1.80;;;20.80;99.90;;;;;;5053990;28;20198;-81
2023/07/30 08:21:23;;;;;;;2.88;1.85;;;20.80;99.90;;;;;;5056412;28;20197;-82
2023/07/30 08:23:54;;;;;;;4.15;1.80;;;20.70;99.90;;;;;;5057528;28;20204;-82
2023/07/30 08:26:27;;;;;;;2.65;1.92;;;20.70;99.90;;;;;;5065672;28;20205;-82
2023/07/30 08:28:57;;;;;;;1.85;1.70;;;20.70;99.90;;;;;;5070909;28;20200;-82
2023/07/30 08:31:28;;;;;;;2.45;1.63;;;20.60;99.90;;;;;;5073001;28;20228;-83
2023/07/30 08:33:59;;;;;;;3.40;1.75;;;20.60;99.90;;;;;;5070698;28;20231;-83
2023/07/30 08:36:30;;;;;;;2.50;1.55;;;20.60;99.90;;;;;;5068687;28;20223;-82
2023/07/30 08:39:01;;;;;;;3.10;1.95;;;20.60;99.90;;;;;;5072572;28;20197;-77
2023/07/30 08:41:33;;;;;;;3.67;2.00;;;20.50;99.90;;;;;;5062018;28;20624;-79
2023/07/30 08:44:04;;;;;;;2.40;1.90;;;20.50;99.90;;;;;;5067704;28;20186;-79
2023/07/30 08:46:35;;;;;;;5.18;2.17;;;20.40;99.90;;;;;;5066140;28;20198;-83
2023/07/30 08:49:06;;;;;;;3.22;2.10;;;20.40;99.90;;;;;;5068753;28;20192;-87
2023/07/30 08:51:39;;;;;;;5.78;2.72;;;20.30;99.90;;;;;;5062956;28;20649;-83
2023/07/30 08:54:11;;;;;;;4.95;2.97;;;20.30;99.90;;;;;;5068132;28;20193;-83
2023/07/30 08:56:45;;;;;;;5.28;3.17;;;20.20;99.90;;;;;;5056300;28;20687;-81
2023/07/30 08:59:17;;;;;;;3.75;2.70;;;20.20;99.90;;;;;;5056301;28;20212;-82
2023/07/30 09:01:49;;;;;;;4.60;2.72;;;20.10;99.90;;;;;;5063515;28;20288;-83
2023/07/30 09:04:21;;;;;;;4.38;2.95;;;20.00;99.90;;;;;;5061007;28;20193;-82
2023/07/30 09:06:53;;;;;;;4.45;3.00;;;20.00;99.90;;;;;;5072546;28;20193;-83
2023/07/30 09:09:24;;;;;;;5.25;3.00;;;19.90;99.90;;;;;;5071301;28;20565;-82
2023/07/30 09:11:59;;;;;;;4.65;2.80;;;19.90;99.90;;;;;;5073663;28;20193;-84
2023/07/30 09:14:30;;;;;;;3.47;2.63;;;19.90;99.90;;;;;;5063461;28;20696;-83
2023/07/30 09:17:01;;;;;;;4.90;2.50;;;19.80;99.90;;;;;;5059761;28;20228;-83
2023/07/30 09:19:37;;;;;;;6.90;3.10;;;19.80;99.90;;;;;;5059697;28;20204;-82
2023/07/30 09:22:09;;;;;;;3.80;2.80;;;19.80;99.90;;;;;;5065598;28;20195;-85
2023/07/30 09:24:44;;;;;;;4.70;3.00;;;19.70;99.90;;;;;;5069810;28;20209;-84
2023/07/30 09:27:22;;;;;;;4.70;3.50;;;19.70;99.90;;;;;;5066371;28;20207;-75
2023/07/30 09:29:55;;;;;;;4.50;3.30;;;19.60;99.90;;;;;;5065427;28;20201;-83
2023/07/30 09:32:30;;;;;;;5.45;3.05;;;19.50;99.90;;;;;;5071229;28;20296;-81
2023/07/30 09:35:08;;;;;;;6.53;3.28;;;19.50;99.90;;;;;;5062538;28;20203;-82
2023/07/30 09:37:41;;;;;;;6.30;3.70;;;19.40;99.90;;;;;;5061917;28;20224;-83
2023/07/30 09:40:14;;;;;;;6.18;3.50;;;19.30;99.90;;;;;;5059914;28;20197;-82
2023/07/30 09:42:50;;;;;;;5.00;2.80;;;19.20;99.90;;;;;;5058223;28;20210;-83
2023/07/30 09:45:24;;;;;;;4.60;2.63;;;19.20;99.90;;;;;;5063365;28;20192;-79
2023/07/30 09:47:56;;;;;;;3.50;2.40;;;19.20;99.90;;;;;;5059379;28;20211;-83
2023/07/30 09:50:26;;;;;;;3.67;2.42;;;19.30;99.90;;;;;;5066097;28;20254;-83
2023/07/30 09:52:58;;;;;;;3.38;2.40;;;19.30;99.90;;;;;;5067052;28;20204;-83
2023/07/30 09:55:29;;;;;;;4.03;2.33;;;19.20;99.90;;;;;;5058046;28;20208;-79
2023/07/30 09:58:02;;;;;;;3.72;2.40;;;19.20;99.90;;;;;;5062437;28;20558;-83
2023/07/30 10:00:34;;;;;;;4.20;2.47;;;19.20;99.90;;;;;;5065399;28;20190;-84
2023/07/30 10:03:06;;;;;;;4.15;2.75;;;19.10;99.90;;;;;;5063599;28;20224;-83
2023/07/30 10:05:37;;;;;;;4.90;2.60;;;19.10;99.90;;;;;;5078656;28;20648;-82
2023/07/30 10:08:11;;;;;;;3.22;2.28;;;19.00;99.90;;;;;;5063956;28;20201;-83
2023/07/30 10:10:42;;;;;;;4.20;2.30;;;18.90;99.90;;;;;;5059844;28;20198;-80
2023/07/30 10:13:16;;;;;;;2.22;2.00;;;18.90;99.90;;;;;;5066395;28;20283;-81
2023/07/30 10:15:48;;;;;;;3.47;2.25;;;18.80;99.90;;;;;;5063620;28;20232;-82
2023/07/30 10:18:19;;;;;;;2.58;2.10;;;18.90;99.90;;;;;;5065375;28;20700;-82
2023/07/30 10:20:57;;;;;;;3.38;1.88;;;18.80;99.90;;;;;;5054307;28;20197;-79
2023/07/30 10:23:35;;;;;;;2.45;2.00;;;18.80;99.90;;;;;;5072786;28;20201;-82
2023/07/30 10:26:13;;;;;;;2.55;1.90;;;18.90;99.90;;;;;;5072777;28;20197;-83
2023/07/30 10:28:46;;;;;;;4.25;2.10;;;18.90;99.90;;;;;;5066849;28;20223;-81
2023/07/30 10:31:18;;;;;;;3.05;1.95;;;18.90;99.90;;;;;;5069825;28;20215;-81
2023/07/30 10:33:52;;;;;;;3.45;2.08;;;18.80;99.90;;;;;;5069274;28;20224;-83
2023/07/30 10:36:33;;;;;;;4.70;1.80;;;18.80;99.90;;;;;;5068632;28;20279;-82
2023/07/30 10:39:15;;;;;;;3.13;1.95;;;18.80;99.90;;;;;;5062877;28;20213;-81
2023/07/30 10:41:47;;;;;;;4.30;2.00;;;18.70;99.90;;;;;;5053480;28;20532;-81
2023/07/30 10:44:31;;;;;;;3.13;1.90;;;18.70;99.90;;;;;;5056245;28;20200;-77
2023/07/30 10:47:03;;;;;;;4.78;2.35;;;18.70;99.90;;;;;;5054127;28;20280;-83
2023/07/30 10:49:40;;;;;;;4.25;1.88;;;18.60;99.90;;;;;;5066433;28;20280;-79
2023/07/30 10:52:11;;;;;;;3.72;2.15;;;18.50;99.90;;;;;;5068825;28;20294;-85
2023/07/30 10:54:42;;;;;;;2.42;1.73;;;18.50;99.90;;;;;;5074059;28;20247;-83
2023/07/30 10:57:13;;;;;;;4.25;1.70;;;18.40;99.90;;;;;;5066483;28;20304;-83
2023/07/30 10:59:46;;;;;;;1.83;1.52;;;18.40;99.90;;;;;;5053643;28;20212;-83
2023/07/30 11:02:19;;;;;;;3.00;1.60;;;18.30;99.90;;;;;;5053313;28;20598;-83
2023/07/30 11:04:50;;;;;;;4.80;1.50;;;18.30;99.90;;;;;;5063935;28;20203;-83
2023/07/30 11:07:21;;;;;;;3.00;1.90;;;18.20;99.90;;;;;;5064394;28;20244;-85
2023/07/30 11:10:03;;;;;;;4.80;1.60;;;18.20;99.90;;;;;;5059375;28;20198;-82
2023/07/30 11:12:34;;;;;;;4.60;1.45;;;18.10;99.90;;;;;;5061693;28;20190;-84
2023/07/30 11:15:08;;;;;;;1.67;1.30;;;18.10;99.90;;;;;;5053164;28;20192;-81
2023/07/30 11:17:39;;;;;;;2.22;1.20;;;18.10;99.90;;;;;;5053400;28;20775;-83
2023/07/30 11:20:11;;;;;;;2.95;1.33;;;18.00;99.90;;;;;;5059025;28;20192;-77
2023/07/30 11:22:41;;;;;;;2.83;1.27;;;18.00;99.90;;;;;;5062501;28;20193;-76
2023/07/30 11:25:21;;;;;;;1.83;1.40;;;17.90;99.90;;;;;;5065964;28;20203;-84
2023/07/30 11:27:52;;;;;;;2.42;1.17;;;17.90;99.90;;;;;;5081530;28;20198;-75
2023/07/30 11:30:28;;;;;;;1.63;1.40;;;17.90;99.90;;;;;;5057720;28;20277;-83
2023/07/30 11:33:00;;;;;;;2.08;1.23;;;17.90;99.90;;;;;;5053457;28;20243;-81
2023/07/30 11:35:31;;;;;;;2.05;1.33;;;17.80;99.90;;;;;;5053265;28;20200;-81
2023/07/30 11:38:01;;;;;;;2.55;1.38;;;17.80;99.90;;;;;;5053315;28;20223;-82
2023/07/30 11:40:32;;;;;;;1.52;1.30;;;17.80;99.90;;;;;;5053055;28;20205;-79
2023/07/30 11:43:03;;;;;;;3.30;1.42;;;17.70;99.90;;;;;;5052115;28;20593;-74
2023/07/30 11:45:36;;;;;;;1.65;1.15;;;17.70;99.90;;;;;;5051515;28;20211;-73
2023/07/30 11:48:14;;;;;;;2.17;1.25;;;17.70;99.90;;;;;;5055192;28;20673;-75
2023/07/30 11:50:55;;;;;;;3.00;1.30;;;17.60;99.90;;;;;;5063496;28;20254;-73
2023/07/30 11:53:45;;;;;;;3.75;1.48;;;17.60;99.90;;;;;;5061435;28;20203;-72
2023/07/30 11:56:24;;;;;;;3.53;1.50;;;17.50;99.90;;;;;;5065192;28;20579;-77
2023/07/30 11:58:56;;;;;;;1.92;1.20;;;17.50;99.90;;;;;;5058635;28;20216;-72
2023/07/30 12:01:31;;;;;;;1.50;1.40;;;17.40;99.90;;;;;;5057291;28;20273;-73
2023/07/30 12:04:03;;;;;;;2.60;1.30;;;17.30;99.90;;;;;;5056258;28;20559;-76
2023/07/30 12:06:43;;;;;;;1.77;1.30;;;17.20;99.90;;;;;;5068192;28;20322;-80
2023/07/30 12:09:15;;;;;;;2.90;1.48;;;17.20;99.90;;;;;;5072528;28;20192;-84
2023/07/30 12:11:54;;;;;;;2.88;1.60;;;17.10;99.90;;;;;;5052943;28;20185;-85
2023/07/30 12:14:30;;;;;;;2.58;1.60;;;17.10;99.90;;;;;;5070034;28;20208;-82
2023/07/30 12:17:02;;;;;;;1.67;1.20;;;17.00;99.90;;;;;;5072961;28;20704;-84
2023/07/30 12:19:35;;;;;;;2.03;1.10;;;17.00;99.90;;;;;;5084003;28;20278;-81
2023/07/30 12:22:06;;;;;;;2.42;1.30;;;17.00;99.90;;;;;;5073331;28;20221;-83
2023/07/30 12:24:37;;;;;;;2.80;1.55;;;17.00;99.90;;;;;;5074963;28;20200;-82
2023/07/30 12:27:08;;;;;;;2.20;1.30;;;16.90;99.90;;;;;;5085071;28;20248;-82
2023/07/30 12:29:39;;;;;;;2.28;1.30;;;16.90;99.90;;;;;;5086126;28;20232;-82
2023/07/30 12:32:12;;;;;;;2.97;1.50;;;16.90;99.90;;;;;;5074537;28;20642;-84
2023/07/30 12:34:42;;;;;;;2.72;1.30;;;16.90;99.90;;;;;;5074704;28;20239;-84
2023/07/30 12:37:13;;;;;;;2.28;1.38;;;16.90;99.90;;;;;;5071037;28;20657;-83
2023/07/30 12:39:44;;;;;;;3.15;1.63;;;16.80;99.90;;;;;;5063359;28;20205;-84
2023/07/30 12:42:15;;;;;;;2.67;1.35;;;16.80;99.90;;;;;;5056531;28;20200;-84
2023/07/30 12:44:46;;;;;;;4.82;1.30;;;16.70;99.90;;;;;;5055258;28;20193;-84
2023/07/30 12:47:18;;;;;;;2.03;1.38;;;16.70;99.90;;;;;;5055845;28;20201;-85
2023/07/30 12:49:49;;;;;;;1.48;1.15;;;16.70;99.90;;;;;;5067292;28;20211;-84
2023/07/30 12:52:20;;;;;;;3.08;1.30;;;16.70;99.90;;;;;;5060420;28;20197;-80
2023/07/30 12:54:51;;;;;;;2.67;1.52;;;16.60;99.90;;;;;;5057031;28;20193;-85
2023/07/30 12:57:22;;;;;;;1.90;1.45;;;16.60;99.90;;;;;;5072945;28;20246;-83
2023/07/30 12:59:52;;;;;;;1.58;1.20;;;16.50;99.90;;;;;;5057048;28;20193;-84
2023/07/30 13:02:25;;;;;;;2.78;1.40;;;16.40;99.90;;;;;;5056733;28;20233;-85
2023/07/30 13:04:56;;;;;;;2.65;1.38;;;16.30;99.90;;;;;;5069583;28;20207;-84
2023/07/30 13:07:27;;;;;;;2.47;1.75;;;16.30;99.90;;;;;;5075943;28;20283;-84
2023/07/30 13:10:07;;;;;;;3.08;1.70;;;16.20;99.90;;;;;;5075788;28;20200;-84
2023/07/30 13:12:38;;;;;;;3.30;1.88;;;16.10;99.90;;;;;;5075490;28;20189;-84